Time;durP1;ratioP1;P1;durP2;ratioP2;P2;SDS_P1;SDS_P2;PMS_P1;PMS_P2;Temp;Humidity;BMP_temperature;BMP_pressure;BME280_temperature;BME280_humidity;BME280_pressure;Samples;Min_cycle;Max_cycle;Signal;HPM_P1;HPM_P2
2023/03/02 00:00:15;;;;;;;2.75;1.25;;;26.30;66.70;;;;;;5143456;23;20012;-51
2023/03/02 00:02:39;;;;;;;1.38;0.90;;;26.40;66.80;;;;;;5142414;23;20218;-46
2023/03/02 00:05:02;;;;;;;2.15;1.08;;;26.40;66.80;;;;;;5143921;23;20017;-48
2023/03/02 00:07:33;;;;;;;1.83;1.00;;;26.40;66.80;;;;;;5142376;23;20020;-48
2023/03/02 00:09:55;;;;;;;2.17;1.05;;;26.40;66.90;;;;;;5143922;23;20016;-48
2023/03/02 00:12:17;;;;;;;2.55;0.93;;;26.40;66.90;;;;;;5142959;23;20012;-48
2023/03/02 00:14:40;;;;;;;1.65;1.00;;;26.40;66.90;;;;;;5143102;23;20028;-46
2023/03/02 00:17:03;;;;;;;2.00;0.80;;;26.40;66.80;;;;;;5142533;23;20034;-46
2023/03/02 00:19:25;;;;;;;1.65;1.02;;;26.40;66.80;;;;;;5142028;23;20519;-47
2023/03/02 00:21:48;;;;;;;3.42;1.00;;;26.40;66.80;;;;;;5143942;23;20449;-50
2023/03/02 00:24:10;;;;;;;1.45;0.80;;;26.40;66.80;;;;;;5145198;23;20020;-51
2023/03/02 00:26:34;;;;;;;1.60;1.08;;;26.40;66.70;;;;;;5143136;23;20012;-51
2023/03/02 00:28:56;;;;;;;1.15;0.90;;;26.40;66.60;;;;;;5141951;23;20109;-49
2023/03/02 00:31:19;;;;;;;5.13;1.17;;;26.40;66.70;;;;;;5142828;23;20016;-48
2023/03/02 00:33:41;;;;;;;2.13;0.93;;;26.40;66.80;;;;;;5140959;23;20017;-48
2023/03/02 00:36:04;;;;;;;0.60;0.57;;;26.50;66.80;;;;;;5141489;23;20074;-45
2023/03/02 00:38:27;;;;;;;0.90;0.85;;;26.50;66.80;;;;;;5143251;23;20403;-50
2023/03/02 00:40:54;;;;;;;1.15;0.90;;;26.50;66.70;;;;;;5140275;23;20332;-46
2023/03/02 00:43:17;;;;;;;2.58;0.85;;;26.50;66.60;;;;;;5133955;23;20008;-48
2023/03/02 00:45:39;;;;;;;2.35;0.93;;;26.50;66.50;;;;;;5134272;23;20012;-49
2023/03/02 00:48:02;;;;;;;1.35;0.70;;;26.60;66.80;;;;;;5142472;23;20052;-51
2023/03/02 00:50:24;;;;;;;1.55;0.65;;;26.60;66.70;;;;;;5141204;23;20047;-48
2023/03/02 00:52:46;;;;;;;1.45;0.80;;;26.60;66.70;;;;;;5142780;23;20017;-46
2023/03/02 00:55:09;;;;;;;1.45;0.70;;;26.60;66.80;;;;;;5142698;23;20098;-47
2023/03/02 00:57:32;;;;;;;0.65;0.65;;;26.60;66.70;;;;;;5142437;23;20019;-49
2023/03/02 00:59:54;;;;;;;2.45;0.80;;;26.60;66.60;;;;;;5141051;23;20016;-52
2023/03/02 01:02:20;;;;;;;3.00;0.73;;;26.60;66.70;;;;;;5142507;23;20172;-52
2023/03/02 01:04:45;;;;;;;1.42;0.70;;;26.60;66.60;;;;;;5142737;23;20032;-49
2023/03/02 01:07:17;;;;;;;3.70;1.10;;;26.70;66.60;;;;;;5141972;23;20362;-47
2023/03/02 01:09:41;;;;;;;0.88;0.60;;;26.70;66.60;;;;;;5141531;23;20023;-50
2023/03/02 01:12:08;;;;;;;1.05;0.65;;;26.70;66.60;;;;;;5132616;23;20016;-52
2023/03/02 01:14:30;;;;;;;1.67;0.70;;;26.70;66.60;;;;;;5127561;23;20016;-53
2023/03/02 01:16:53;;;;;;;1.03;0.60;;;26.80;66.50;;;;;;5140902;23;20559;-52
2023/03/02 01:19:17;;;;;;;1.77;0.70;;;26.80;66.60;;;;;;5141661;23;20016;-53
2023/03/02 01:21:40;;;;;;;;;;;26.80;66.50;;;;;;5141392;23;20012;-51
2023/03/02 01:24:02;;;;;;;2.47;0.60;;;26.80;66.50;;;;;;5131334;23;19908;-50
2023/03/02 01:26:25;;;;;;;1.23;0.65;;;26.80;66.50;;;;;;5140654;23;20100;-50
2023/03/02 01:28:47;;;;;;;0.93;0.82;;;26.80;66.40;;;;;;5142124;23;20008;-55
2023/03/02 01:31:10;;;;;;;0.95;0.50;;;26.80;66.40;;;;;;5142314;23;20016;-48
2023/03/02 01:33:32;;;;;;;1.40;0.55;;;26.90;66.40;;;;;;5140017;23;20044;-55
2023/03/02 01:35:55;;;;;;;2.15;0.70;;;26.90;66.40;;;;;;5132734;23;20029;-55
2023/03/02 01:38:17;;;;;;;2.83;0.70;;;26.90;66.40;;;;;;5142257;23;20017;-53
2023/03/02 01:40:40;;;;;;;2.38;0.65;;;26.90;66.40;;;;;;5142297;23;20324;-50
2023/03/02 01:43:03;;;;;;;1.60;0.40;;;27.00;66.50;;;;;;5142630;23;20414;-52
2023/03/02 01:45:53;;;;;;;1.85;0.65;;;27.00;66.30;;;;;;5142788;23;20115;-51
2023/03/02 01:48:19;;;;;;;1.63;0.47;;;27.00;66.30;;;;;;5140266;23;20411;-54
2023/03/02 01:50:42;;;;;;;1.85;0.50;;;27.00;66.30;;;;;;5128915;23;20017;-52
2023/03/02 01:53:05;;;;;;;0.85;0.55;;;27.00;66.20;;;;;;5139716;23;20043;-52
2023/03/02 01:55:31;;;;;;;1.63;0.65;;;27.10;66.30;;;;;;5142715;23;20051;-58
2023/03/02 01:57:55;;;;;;;3.22;0.70;;;27.10;66.20;;;;;;5142446;23;20017;-54
2023/03/02 02:00:26;;;;;;;1.27;0.60;;;27.10;66.20;;;;;;5138707;23;20499;-54
2023/03/02 02:02:50;;;;;;;2.50;0.85;;;27.10;66.10;;;;;;5141284;23;20016;-54
2023/03/02 02:05:18;;;;;;;1.00;0.55;;;27.20;66.20;;;;;;5131623;23;20075;-48
2023/03/02 02:07:41;;;;;;;1.48;0.73;;;27.20;66.00;;;;;;5141771;23;20015;-58
2023/03/02 02:10:04;;;;;;;0.75;0.73;;;27.20;66.00;;;;;;5140893;23;20017;-52
2023/03/02 02:12:27;;;;;;;1.80;0.60;;;27.20;65.90;;;;;;5140655;23;20517;-53
2023/03/02 02:14:50;;;;;;;1.17;0.40;;;27.20;65.90;;;;;;5140796;23;20142;-50
2023/03/02 02:17:13;;;;;;;0.98;0.60;;;27.20;65.80;;;;;;5139991;23;20028;-51
2023/03/02 02:19:52;;;;;;;1.25;0.63;;;27.30;65.90;;;;;;5140891;23;20490;-51
2023/03/02 02:22:25;;;;;;;0.98;0.45;;;27.30;65.80;;;;;;5143654;23;20017;-51
2023/03/02 02:24:57;;;;;;;5.57;0.93;;;27.30;65.80;;;;;;5143583;23;20366;-51
2023/03/02 02:27:19;;;;;;;4.13;0.93;;;27.40;65.90;;;;;;5136852;23;20466;-54
2023/03/02 02:29:50;;;;;;;4.43;1.20;;;27.40;65.50;;;;;;5141867;23;20087;-57
2023/03/02 02:32:26;;;;;;;2.10;0.60;;;27.40;65.50;;;;;;5145810;23;20091;-50
2023/03/02 02:35:00;;;;;;;3.75;0.80;;;27.30;65.60;;;;;;5145506;23;20016;-53
2023/03/02 02:37:35;;;;;;;1.17;0.68;;;27.40;65.80;;;;;;5144372;23;20024;-57
2023/03/02 02:39:58;;;;;;;1.25;0.80;;;27.40;66.00;;;;;;5143724;23;20043;-59
2023/03/02 02:42:40;;;;;;;;;;;27.40;66.60;;;;;;5146766;23;20024;-55
2023/03/02 02:45:20;;;;;;;0.80;0.60;;;27.40;66.10;;;;;;5138250;23;19954;-52
2023/03/02 02:47:42;;;;;;;0.90;0.50;;;27.50;66.20;;;;;;5144613;23;20012;-59
2023/03/02 02:50:05;;;;;;;0.40;0.40;;;27.50;66.20;;;;;;5146746;23;20390;-60
2023/03/02 02:52:29;;;;;;;1.15;0.60;;;27.50;66.10;;;;;;5144354;23;20043;-59
2023/03/02 02:54:54;;;;;;;1.05;0.65;;;27.50;66.20;;;;;;5145234;23;20103;-51
2023/03/02 02:57:18;;;;;;;0.68;0.50;;;27.50;66.20;;;;;;5145636;23;20017;-52
2023/03/02 02:59:55;;;;;;;2.88;0.95;;;27.60;66.20;;;;;;5143626;23;20398;-59
2023/03/02 03:02:22;;;;;;;1.90;0.82;;;27.60;66.20;;;;;;5141744;23;20026;-48
2023/03/02 03:04:44;;;;;;;5.32;1.35;;;27.60;66.30;;;;;;5143264;23;20024;-45
2023/03/02 03:07:12;;;;;;;4.07;0.52;;;27.60;66.20;;;;;;5144967;23;20019;-49
2023/03/02 03:09:35;;;;;;;1.20;0.73;;;27.60;66.10;;;;;;5144345;23;20012;-46
2023/03/02 03:12:02;;;;;;;3.40;0.50;;;27.60;66.10;;;;;;5142816;23;20467;-48
2023/03/02 03:14:38;;;;;;;3.30;0.80;;;27.70;66.00;;;;;;5142566;23;20454;-48
2023/03/02 03:17:01;;;;;;;3.70;0.98;;;27.70;65.90;;;;;;5142883;23;20040;-48
2023/03/02 03:19:26;;;;;;;13.10;1.58;;;27.70;65.80;;;;;;5142814;23;20447;-48
2023/03/02 03:21:51;;;;;;;21.83;2.83;;;27.80;65.80;;;;;;5142845;23;20486;-49
2023/03/02 03:24:14;;;;;;;7.18;1.55;;;27.80;65.80;;;;;;5142865;23;20066;-50
2023/03/02 03:26:36;;;;;;;6.38;1.52;;;27.80;65.60;;;;;;5141851;23;20277;-58
2023/03/02 03:28:59;;;;;;;5.13;0.70;;;27.80;65.50;;;;;;5142290;23;20016;-60
2023/03/02 03:31:22;;;;;;;2.60;0.85;;;27.80;65.50;;;;;;5143285;23;20012;-55
2023/03/02 03:33:44;;;;;;;10.18;1.67;;;27.80;65.50;;;;;;5142726;23;20509;-56
2023/03/02 03:36:07;;;;;;;4.80;1.00;;;27.90;65.50;;;;;;5133811;23;20475;-59
2023/03/02 03:38:30;;;;;;;4.57;0.90;;;27.90;65.50;;;;;;5141860;23;20577;-56
2023/03/02 03:40:52;;;;;;;3.63;0.77;;;27.90;65.50;;;;;;5144035;23;20020;-57
2023/03/02 03:43:15;;;;;;;2.17;0.70;;;27.90;65.40;;;;;;5142144;23;20017;-60
2023/03/02 03:45:37;;;;;;;2.83;0.95;;;27.90;65.40;;;;;;5143411;23;20350;-58
2023/03/02 03:48:00;;;;;;;0.80;0.60;;;27.90;65.30;;;;;;5141647;23;20020;-59
2023/03/02 03:50:23;;;;;;;1.25;0.60;;;27.90;65.30;;;;;;5142540;23;20095;-57
2023/03/02 03:52:45;;;;;;;1.08;0.63;;;27.90;65.20;;;;;;5140717;23;20024;-50
2023/03/02 03:55:08;;;;;;;2.85;0.50;;;28.00;65.30;;;;;;5141570;23;20034;-57
2023/03/02 03:57:30;;;;;;;3.28;0.60;;;28.00;65.20;;;;;;5143413;23;20454;-56
2023/03/02 03:59:54;;;;;;;3.65;0.60;;;28.00;65.20;;;;;;5142017;23;20020;-51
2023/03/02 04:02:16;;;;;;;2.70;0.50;;;28.10;65.20;;;;;;5144484;23;20008;-52
2023/03/02 04:04:39;;;;;;;2.08;0.65;;;28.10;65.10;;;;;;5144103;23;20074;-54
2023/03/02 04:07:01;;;;;;;1.85;0.50;;;28.10;65.00;;;;;;5145629;23;20047;-55
2023/03/02 04:09:24;;;;;;;0.70;0.40;;;28.10;64.90;;;;;;5145490;23;20413;-52
2023/03/02 04:11:49;;;;;;;1.88;0.60;;;28.20;64.90;;;;;;5143671;23;20307;-50
2023/03/02 04:14:12;;;;;;;0.43;0.35;;;28.20;64.90;;;;;;5143583;23;20016;-51
2023/03/02 04:16:36;;;;;;;2.10;0.70;;;28.20;65.00;;;;;;5143355;23;20016;-51
2023/03/02 04:18:59;;;;;;;1.67;0.70;;;28.20;65.00;;;;;;5141720;23;20044;-51
2023/03/02 04:21:22;;;;;;;1.52;0.40;;;28.20;65.20;;;;;;5142790;23;20019;-57
2023/03/02 04:23:44;;;;;;;1.30;0.65;;;28.20;65.20;;;;;;5142167;23;20024;-58
2023/03/02 04:26:07;;;;;;;0.88;0.50;;;28.20;65.20;;;;;;5142800;23;20425;-59
2023/03/02 04:28:29;;;;;;;0.65;0.60;;;28.20;65.10;;;;;;5141800;23;20020;-59
2023/03/02 04:30:52;;;;;;;0.50;0.40;;;28.30;65.20;;;;;;5142212;23;20124;-60
2023/03/02 04:33:15;;;;;;;1.60;0.55;;;28.30;65.00;;;;;;5132666;23;20046;-60
2023/03/02 04:35:37;;;;;;;0.95;0.47;;;28.40;64.90;;;;;;5141226;23;20050;-60
2023/03/02 04:37:59;;;;;;;0.77;0.40;;;28.40;64.80;;;;;;5141930;23;20017;-56
2023/03/02 04:40:22;;;;;;;1.48;0.50;;;28.40;64.70;;;;;;5140820;23;20016;-57
2023/03/02 04:42:45;;;;;;;0.73;0.40;;;28.40;64.70;;;;;;5141951;23;20104;-57
2023/03/02 04:45:08;;;;;;;1.05;0.30;;;28.40;64.70;;;;;;5137849;23;20051;-59
2023/03/02 04:47:30;;;;;;;0.60;0.40;;;28.50;64.70;;;;;;5140670;23;20020;-55
2023/03/02 04:49:53;;;;;;;0.93;0.50;;;28.50;64.80;;;;;;5141019;23;20502;-58
2023/03/02 04:52:16;;;;;;;2.75;0.80;;;28.60;64.00;;;;;;5132845;23;20032;-50
2023/03/02 04:54:38;;;;;;;0.90;0.60;;;28.60;64.50;;;;;;5139985;23;20027;-53
2023/03/02 04:57:01;;;;;;;0.60;0.43;;;28.70;64.40;;;;;;5131518;23;20478;-53
2023/03/02 04:59:26;;;;;;;1.10;0.38;;;28.80;64.40;;;;;;5139205;23;20517;-53
2023/03/02 05:01:49;;;;;;;1.10;0.40;;;28.80;64.20;;;;;;5140311;23;20525;-59
2023/03/02 05:04:12;;;;;;;1.55;0.43;;;28.90;64.10;;;;;;5131520;23;20012;-58
2023/03/02 05:06:35;;;;;;;1.23;0.30;;;29.00;64.00;;;;;;5140971;23;20062;-59
2023/03/02 05:08:58;;;;;;;1.38;0.47;;;29.00;63.90;;;;;;5141362;23;20078;-54
2023/03/02 05:11:24;;;;;;;0.75;0.50;;;29.10;63.80;;;;;;5139836;23;20016;-57
2023/03/02 05:13:54;;;;;;;0.80;0.32;;;29.10;63.60;;;;;;5133229;23;20004;-50
2023/03/02 05:16:18;;;;;;;4.40;0.65;;;29.20;63.50;;;;;;5141784;23;20024;-54
2023/03/02 05:18:40;;;;;;;0.40;0.35;;;29.20;63.50;;;;;;5139271;23;20127;-50
2023/03/02 05:21:02;;;;;;;0.60;0.50;;;29.20;63.60;;;;;;5139431;23;20020;-51
2023/03/02 05:23:27;;;;;;;1.38;0.40;;;29.30;63.50;;;;;;5140192;23;20098;-51
2023/03/02 05:25:54;;;;;;;0.57;0.35;;;29.30;63.40;;;;;;5133662;23;20013;-51
2023/03/02 05:28:18;;;;;;;0.57;0.40;;;29.40;63.30;;;;;;5141018;23;20098;-51
2023/03/02 05:30:40;;;;;;;0.80;0.45;;;29.50;63.20;;;;;;5131300;23;20418;-57
2023/03/02 05:33:03;;;;;;;1.35;0.50;;;29.50;63.10;;;;;;5137925;23;20459;-52
2023/03/02 05:35:26;;;;;;;0.65;0.50;;;29.60;63.10;;;;;;5142026;23;20581;-55
2023/03/02 05:37:49;;;;;;;2.43;0.40;;;29.70;63.00;;;;;;5139783;23;20039;-52
2023/03/02 05:40:14;;;;;;;0.82;0.55;;;29.70;63.10;;;;;;5140646;23;20813;-53
2023/03/02 05:42:37;;;;;;;1.88;0.43;;;29.70;63.10;;;;;;5138881;23;20098;-59
2023/03/02 05:44:59;;;;;;;2.05;0.55;;;29.80;63.00;;;;;;5139893;23;20019;-58
2023/03/02 05:47:21;;;;;;;0.68;0.50;;;29.80;63.00;;;;;;5141925;23;20496;-52
2023/03/02 05:49:44;;;;;;;0.60;0.30;;;29.80;63.00;;;;;;5132305;23;20063;-58
2023/03/02 05:52:06;;;;;;;1.15;1.05;;;29.90;62.90;;;;;;5142301;23;20411;-58
2023/03/02 05:54:29;;;;;;;0.55;0.45;;;29.90;63.00;;;;;;5139275;23;20020;-55
2023/03/02 05:56:51;;;;;;;1.73;0.60;;;29.90;63.00;;;;;;5142281;23;20027;-57
2023/03/02 05:59:14;;;;;;;2.33;0.60;;;29.90;63.10;;;;;;5138537;23;20817;-54
2023/03/02 06:01:37;;;;;;;2.33;0.50;;;30.00;63.10;;;;;;5140348;23;20294;-52
2023/03/02 06:04:00;;;;;;;0.93;0.32;;;30.10;62.90;;;;;;5139137;23;20013;-49
2023/03/02 06:06:22;;;;;;;1.90;0.40;;;30.20;62.80;;;;;;5142723;23;20091;-53
2023/03/02 06:08:44;;;;;;;0.65;0.32;;;30.20;62.50;;;;;;5141069;23;20020;-51
2023/03/02 06:11:08;;;;;;;0.95;0.40;;;30.30;62.30;;;;;;5134114;23;20017;-47
2023/03/02 06:13:30;;;;;;;2.45;0.50;;;30.40;61.50;;;;;;5140185;23;20020;-44
2023/03/02 06:15:53;;;;;;;1.42;0.65;;;30.30;58.70;;;;;;5141372;23;20043;-49
2023/03/02 06:18:15;;;;;;;1.08;0.60;;;30.20;57.60;;;;;;5140352;23;20454;-52
2023/03/02 06:20:39;;;;;;;0.43;0.43;;;30.00;55.80;;;;;;5140011;23;20025;-50
2023/03/02 06:23:01;;;;;;;0.85;0.55;;;29.90;55.60;;;;;;5133101;23;20246;-51
2023/03/02 06:25:24;;;;;;;1.98;0.80;;;29.70;55.00;;;;;;5131470;23;20099;-48
2023/03/02 06:27:52;;;;;;;1.17;0.57;;;29.60;54.30;;;;;;5141395;23;20055;-48
2023/03/02 06:30:16;;;;;;;1.35;0.80;;;29.40;53.80;;;;;;5131680;23;20083;-52
2023/03/02 06:32:39;;;;;;;1.20;0.70;;;29.20;53.70;;;;;;5137097;23;20055;-54
2023/03/02 06:35:03;;;;;;;1.50;0.60;;;29.10;52.80;;;;;;5141298;23;20023;-49
2023/03/02 06:37:25;;;;;;;1.45;0.93;;;29.00;53.30;;;;;;5139754;23;20046;-54
2023/03/02 06:39:48;;;;;;;1.00;0.60;;;28.90;52.40;;;;;;5133326;23;20021;-56
2023/03/02 06:42:10;;;;;;;1.23;0.75;;;28.70;52.90;;;;;;5139922;23;20296;-53
2023/03/02 06:44:33;;;;;;;1.15;0.68;;;28.60;52.50;;;;;;5141457;23;20020;-56
2023/03/02 06:46:55;;;;;;;1.58;0.80;;;28.60;52.80;;;;;;5141928;23;20015;-48
2023/03/02 06:49:18;;;;;;;1.60;0.70;;;28.40;51.80;;;;;;5139016;23;20104;-51
2023/03/02 06:51:40;;;;;;;1.70;0.77;;;28.20;52.60;;;;;;5140207;23;20040;-51
2023/03/02 06:54:03;;;;;;;0.75;0.63;;;28.10;52.40;;;;;;5141773;23;20021;-46
2023/03/02 06:56:26;;;;;;;0.82;0.68;;;28.00;52.90;;;;;;5140836;23;20347;-47
2023/03/02 06:58:49;;;;;;;0.95;0.85;;;27.80;52.50;;;;;;5136786;23;20348;-49
2023/03/02 07:01:11;;;;;;;1.17;0.90;;;27.70;53.40;;;;;;5135866;23;20071;-50
2023/03/02 07:03:34;;;;;;;0.88;0.70;;;27.70;52.70;;;;;;5139320;23;20017;-46
2023/03/02 07:05:57;;;;;;;1.23;0.98;;;27.60;52.70;;;;;;5138962;23;20013;-49
2023/03/02 07:08:19;;;;;;;0.52;0.50;;;27.50;53.10;;;;;;5141724;23;20022;-51
2023/03/02 07:10:42;;;;;;;0.95;0.68;;;27.50;53.20;;;;;;5141196;23;20021;-52
2023/03/02 07:13:04;;;;;;;1.40;0.70;;;27.60;53.80;;;;;;5141143;23;20340;-52
2023/03/02 07:15:27;;;;;;;0.63;0.50;;;27.70;54.50;;;;;;5139417;23;20052;-50
2023/03/02 07:17:49;;;;;;;0.80;0.40;;;27.70;54.50;;;;;;5128055;23;20024;-51
2023/03/02 07:20:14;;;;;;;1.65;0.63;;;27.80;55.10;;;;;;5141831;23;20546;-51
2023/03/02 07:22:36;;;;;;;1.75;0.57;;;27.80;55.40;;;;;;5140853;23;20082;-53
2023/03/02 07:24:59;;;;;;;0.93;0.68;;;27.90;55.70;;;;;;5141349;23;20021;-51
2023/03/02 07:27:21;;;;;;;1.13;0.65;;;27.90;56.00;;;;;;5141146;23;20123;-46
2023/03/02 07:29:44;;;;;;;0.73;0.50;;;27.90;56.30;;;;;;5142395;23;20020;-49
2023/03/02 07:32:06;;;;;;;1.43;0.60;;;28.00;56.80;;;;;;5142349;23;20091;-55
2023/03/02 07:34:29;;;;;;;1.98;0.60;;;28.00;57.00;;;;;;5142326;23;20419;-47
2023/03/02 07:36:52;;;;;;;5.82;0.77;;;28.00;57.20;;;;;;5142033;23;20024;-51
2023/03/02 07:39:14;;;;;;;1.52;0.40;;;28.00;57.40;;;;;;5140576;23;20087;-46
2023/03/02 07:41:36;;;;;;;2.75;0.40;;;28.10;57.70;;;;;;5141842;23;20115;-50
2023/03/02 07:43:59;;;;;;;1.27;0.63;;;28.10;57.90;;;;;;5142488;23;20020;-51
2023/03/02 07:46:21;;;;;;;3.03;0.52;;;28.10;58.20;;;;;;5143231;23;20517;-50
2023/03/02 07:48:44;;;;;;;3.28;0.50;;;28.20;58.40;;;;;;5142516;23;20079;-54
2023/03/02 07:51:06;;;;;;;1.73;0.50;;;28.20;58.60;;;;;;5143579;23;20126;-51
2023/03/02 07:53:29;;;;;;;2.10;0.60;;;28.20;58.70;;;;;;5143641;23;20044;-53
2023/03/02 07:55:52;;;;;;;1.02;0.45;;;28.20;58.80;;;;;;5142538;23;20115;-57
2023/03/02 07:58:14;;;;;;;1.73;0.75;;;28.30;59.00;;;;;;5142019;23;20012;-50
2023/03/02 08:00:38;;;;;;;1.17;0.73;;;28.30;59.10;;;;;;5143059;23;20044;-52
2023/03/02 08:03:00;;;;;;;;;;;28.30;59.20;;;;;;5144035;23;20012;-53
2023/03/02 08:05:22;;;;;;;2.95;0.75;;;28.30;59.20;;;;;;5144380;23;19954;-49
2023/03/02 08:07:47;;;;;;;1.40;0.45;;;28.30;59.30;;;;;;5142932;23;20012;-47
2023/03/02 08:10:10;;;;;;;0.95;0.65;;;28.30;59.30;;;;;;5141461;23;20107;-50
2023/03/02 08:12:33;;;;;;;1.95;0.60;;;28.30;59.30;;;;;;5143161;23;20022;-52
2023/03/02 08:14:55;;;;;;;1.23;0.50;;;28.30;59.40;;;;;;5140953;23;20016;-51
2023/03/02 08:17:18;;;;;;;0.70;0.43;;;28.30;59.50;;;;;;5141357;23;20025;-51
2023/03/02 08:19:40;;;;;;;3.15;0.77;;;28.40;59.70;;;;;;5140093;23;20024;-58
2023/03/02 08:22:03;;;;;;;1.52;0.43;;;28.40;59.70;;;;;;5141044;23;20016;-57
2023/03/02 08:24:25;;;;;;;0.30;0.30;;;28.40;59.80;;;;;;5142939;23;20017;-53
2023/03/02 08:26:47;;;;;;;1.52;0.70;;;28.40;59.90;;;;;;5142857;23;20353;-47
2023/03/02 08:29:10;;;;;;;0.30;0.30;;;28.40;60.00;;;;;;5141466;23;20020;-56
2023/03/02 08:31:33;;;;;;;0.57;0.40;;;28.40;60.00;;;;;;5143735;23;20016;-50
2023/03/02 08:33:55;;;;;;;1.43;0.60;;;28.40;60.00;;;;;;5140654;23;20483;-54
2023/03/02 08:36:19;;;;;;;0.85;0.40;;;28.40;60.10;;;;;;5142204;23;20024;-51
2023/03/02 08:38:42;;;;;;;1.35;0.65;;;28.40;60.20;;;;;;5139718;23;20106;-56
2023/03/02 08:41:06;;;;;;;2.07;0.60;;;28.40;60.30;;;;;;5134000;23;20043;-58
2023/03/02 08:43:29;;;;;;;2.45;0.68;;;28.40;60.40;;;;;;5120741;23;20100;-55
2023/03/02 08:45:53;;;;;;;0.40;0.30;;;28.40;60.40;;;;;;5134807;23;20481;-57
2023/03/02 08:48:16;;;;;;;0.93;0.40;;;28.40;60.40;;;;;;5132735;23;20016;-48
2023/03/02 08:50:38;;;;;;;2.85;0.80;;;28.50;61.10;;;;;;5135408;23;20163;-46
2023/03/02 08:53:00;;;;;;;2.05;0.43;;;28.50;60.50;;;;;;5133528;23;20035;-47
2023/03/02 08:55:23;;;;;;;1.52;0.60;;;28.50;60.60;;;;;;5137888;23;20021;-45
2023/03/02 08:57:46;;;;;;;3.35;0.82;;;28.50;60.70;;;;;;5137259;23;20387;-44
2023/03/02 09:00:13;;;;;;;1.85;0.40;;;28.50;60.70;;;;;;5137689;23;20024;-45
2023/03/02 09:02:35;;;;;;;0.85;0.50;;;28.50;60.70;;;;;;5139056;23;20008;-44
2023/03/02 09:04:58;;;;;;;1.80;0.52;;;28.50;60.70;;;;;;5132664;23;20087;-45
2023/03/02 09:07:20;;;;;;;1.27;0.40;;;28.50;60.80;;;;;;5139406;23;20016;-51
2023/03/02 09:09:43;;;;;;;1.58;0.75;;;28.50;60.80;;;;;;5130427;23;20122;-48
2023/03/02 09:12:05;;;;;;;1.00;0.40;;;28.50;60.80;;;;;;5127958;23;20374;-45
2023/03/02 09:14:28;;;;;;;0.70;0.40;;;28.50;60.80;;;;;;5140716;23;20447;-47
2023/03/02 09:16:51;;;;;;;1.10;0.43;;;28.50;60.90;;;;;;5140795;23;20070;-51
2023/03/02 09:19:14;;;;;;;1.48;0.70;;;28.50;61.00;;;;;;5137554;23;20486;-50
2023/03/02 09:21:36;;;;;;;2.90;0.88;;;28.60;61.10;;;;;;5140302;23;20447;-46
2023/03/02 09:23:59;;;;;;;1.15;0.77;;;28.60;61.20;;;;;;5130650;23;20013;-46
2023/03/02 09:26:22;;;;;;;0.65;0.47;;;28.60;61.10;;;;;;5138960;23;20120;-49
2023/03/02 09:28:44;;;;;;;1.58;0.73;;;28.60;61.10;;;;;;5128371;23;20016;-45
2023/03/02 09:31:08;;;;;;;2.17;0.63;;;28.60;61.20;;;;;;5141113;23;20016;-45
2023/03/02 09:33:32;;;;;;;4.53;1.00;;;28.60;61.20;;;;;;5140952;23;20019;-48
2023/03/02 09:35:53;;;;;;;;;;;28.60;61.30;;;;;;5142873;23;20071;-47
2023/03/02 09:38:17;;;;;;;1.48;0.50;;;28.60;61.40;;;;;;5143383;23;20281;-47
2023/03/02 09:40:51;;;;;;;1.20;0.80;;;28.60;61.30;;;;;;5132204;23;20016;-49
2023/03/02 09:43:36;;;;;;;0.73;0.60;;;28.60;61.40;;;;;;5140885;23;20017;-48
2023/03/02 09:46:26;;;;;;;0.90;0.50;;;28.60;61.40;;;;;;5141979;23;20675;-50
2023/03/02 09:49:25;;;;;;;1.00;0.40;;;28.60;61.40;;;;;;5133069;23;20024;-52
2023/03/02 09:52:21;;;;;;;0.98;0.50;;;28.60;61.40;;;;;;5140705;23;20016;-54
2023/03/02 09:54:43;;;;;;;0.65;0.60;;;28.60;61.40;;;;;;5140424;23;20501;-51
2023/03/02 09:57:19;;;;;;;2.20;0.80;;;28.60;62.10;;;;;;5142351;23;20384;-56
2023/03/02 09:59:47;;;;;;;1.73;0.50;;;28.60;61.40;;;;;;5139950;23;20368;-47
2023/03/02 10:02:23;;;;;;;0.85;0.70;;;28.60;61.40;;;;;;5140700;23;20024;-49
2023/03/02 10:04:49;;;;;;;0.50;0.47;;;28.60;61.50;;;;;;5139121;23;20110;-47
2023/03/02 10:07:19;;;;;;;0.93;0.60;;;28.60;61.50;;;;;;5140474;23;20362;-45
2023/03/02 10:09:42;;;;;;;2.42;0.80;;;28.60;61.50;;;;;;5140336;23;20020;-45
2023/03/02 10:12:30;;;;;;;1.77;0.70;;;28.60;61.50;;;;;;5140504;23;20534;-48
2023/03/02 10:15:09;;;;;;;3.33;0.70;;;28.60;61.50;;;;;;5139936;23;20123;-46
2023/03/02 10:17:58;;;;;;;4.70;0.80;;;28.60;61.50;;;;;;5141792;23;20455;-45
2023/03/02 10:20:52;;;;;;;0.65;0.40;;;28.60;61.50;;;;;;5139061;23;20486;-47
2023/03/02 10:23:39;;;;;;;1.30;0.65;;;28.60;61.60;;;;;;5141046;23;20036;-48
2023/03/02 10:26:41;;;;;;;1.70;0.80;;;28.60;61.60;;;;;;5139526;23;20020;-47
2023/03/02 10:29:27;;;;;;;2.75;0.80;;;28.70;61.70;;;;;;5130970;23;20016;-49
2023/03/02 10:31:58;;;;;;;1.50;0.70;;;28.70;61.70;;;;;;5137851;23;20113;-51
2023/03/02 10:34:23;;;;;;;1.45;0.70;;;28.70;61.70;;;;;;5139328;23;20096;-46
2023/03/02 10:36:46;;;;;;;1.05;0.45;;;28.70;61.70;;;;;;5140485;23;20021;-49
2023/03/02 10:39:16;;;;;;;0.90;0.70;;;28.60;61.60;;;;;;5141703;23;20020;-48
2023/03/02 10:41:55;;;;;;;1.15;0.70;;;28.70;61.70;;;;;;5141498;23;20016;-46
2023/03/02 10:44:36;;;;;;;0.90;0.68;;;28.60;61.60;;;;;;5141705;23;20077;-46
2023/03/02 10:46:58;;;;;;;1.75;0.70;;;28.60;61.60;;;;;;5133238;23;20441;-49
2023/03/02 10:49:24;;;;;;;1.98;0.80;;;28.60;61.60;;;;;;5133143;23;20541;-53
2023/03/02 10:51:58;;;;;;;1.35;0.60;;;28.60;61.60;;;;;;5133690;23;20040;-48
2023/03/02 10:54:20;;;;;;;;;;;28.60;61.60;;;;;;5142197;23;20020;-53
2023/03/02 10:56:47;;;;;;;0.68;0.50;;;28.60;61.60;;;;;;5143468;23;19970;-52
2023/03/02 10:59:32;;;;;;;1.95;0.80;;;28.60;61.60;;;;;;5142041;23;20012;-54
2023/03/02 11:02:22;;;;;;;0.80;0.52;;;28.60;61.70;;;;;;5133526;23;20016;-51
2023/03/02 11:04:45;;;;;;;1.65;0.82;;;28.70;61.80;;;;;;5131262;23;20023;-53
2023/03/02 11:07:11;;;;;;;0.73;0.55;;;28.60;61.70;;;;;;5141881;23;20454;-52
2023/03/02 11:09:34;;;;;;;1.00;0.68;;;28.60;61.70;;;;;;5131924;23;20008;-46
2023/03/02 11:11:57;;;;;;;0.93;0.57;;;28.60;61.70;;;;;;5141442;23;20358;-52
2023/03/02 11:14:22;;;;;;;0.90;0.60;;;28.60;61.70;;;;;;5133155;23;20013;-49
2023/03/02 11:16:45;;;;;;;2.10;0.75;;;28.60;61.70;;;;;;5143342;23;20467;-50
2023/03/02 11:19:18;;;;;;;1.42;0.50;;;28.60;61.70;;;;;;5142656;23;20108;-49
2023/03/02 11:21:48;;;;;;;3.85;0.98;;;28.60;61.70;;;;;;5141483;23;20083;-48
2023/03/02 11:24:19;;;;;;;1.55;0.70;;;28.60;61.70;;;;;;5141786;23;20035;-50
2023/03/02 11:26:49;;;;;;;2.42;0.80;;;28.60;61.80;;;;;;5142544;23;20344;-51
2023/03/02 11:29:30;;;;;;;1.50;0.68;;;28.60;61.80;;;;;;5141613;23;20074;-49
2023/03/02 11:31:58;;;;;;;2.53;0.80;;;28.60;61.90;;;;;;5141400;23;20020;-51
2023/03/02 11:34:28;;;;;;;0.85;0.57;;;28.50;62.50;;;;;;5142218;23;20023;-48
2023/03/02 11:37:27;;;;;;;1.67;0.77;;;28.50;61.90;;;;;;5134210;23;20032;-56
2023/03/02 11:39:56;;;;;;;1.38;0.70;;;28.50;62.00;;;;;;5141626;23;20462;-49
2023/03/02 11:42:23;;;;;;;1.50;0.80;;;28.50;62.00;;;;;;5144756;23;20024;-46
2023/03/02 11:44:49;;;;;;;2.72;0.90;;;28.50;61.80;;;;;;5132245;23;20083;-51
2023/03/02 11:47:12;;;;;;;1.20;0.80;;;28.50;61.70;;;;;;5143920;23;20017;-48
2023/03/02 11:49:45;;;;;;;2.93;1.07;;;28.50;61.60;;;;;;5143932;23;20529;-47
2023/03/02 11:52:19;;;;;;;1.17;0.90;;;28.50;61.70;;;;;;5142519;23;20367;-47
2023/03/02 11:54:46;;;;;;;2.92;1.42;;;28.40;62.40;;;;;;5140909;23;20012;-46
2023/03/02 11:57:30;;;;;;;2.28;0.70;;;28.40;61.80;;;;;;5142473;23;20028;-51
2023/03/02 11:59:55;;;;;;;2.80;1.00;;;28.40;61.90;;;;;;5142503;23;20095;-50
2023/03/02 12:02:18;;;;;;;2.47;0.70;;;28.50;62.00;;;;;;5143315;23;20426;-51
2023/03/02 12:04:41;;;;;;;0.98;0.52;;;28.40;62.00;;;;;;5133554;23;20017;-48
2023/03/02 12:07:25;;;;;;;1.85;0.60;;;28.50;62.10;;;;;;5143194;23;20016;-46
2023/03/02 12:10:01;;;;;;;0.70;0.50;;;28.40;62.10;;;;;;5134942;23;20008;-50
2023/03/02 12:12:41;;;;;;;1.27;0.68;;;28.40;62.10;;;;;;5137611;23;20020;-46
2023/03/02 12:15:23;;;;;;;1.05;0.50;;;28.40;62.30;;;;;;5134158;23;20020;-49
2023/03/02 12:17:46;;;;;;;1.23;0.65;;;28.50;62.20;;;;;;5128265;23;20516;-45
2023/03/02 12:20:08;;;;;;;1.33;0.50;;;28.40;62.20;;;;;;5142199;23;20039;-47
2023/03/02 12:22:35;;;;;;;1.02;0.52;;;28.40;62.10;;;;;;5141048;23;20019;-49
2023/03/02 12:25:18;;;;;;;3.65;1.20;;;28.50;62.30;;;;;;5143883;23;20027;-52
2023/03/02 12:27:41;;;;;;;0.80;0.40;;;28.40;62.20;;;;;;5143718;23;20013;-44
2023/03/02 12:30:22;;;;;;;1.15;0.47;;;28.40;62.20;;;;;;5135042;23;20016;-48
2023/03/02 12:32:57;;;;;;;1.08;0.40;;;28.40;62.30;;;;;;5141480;23;20020;-46
2023/03/02 12:35:22;;;;;;;0.73;0.60;;;28.40;62.30;;;;;;5142887;23;20028;-51
2023/03/02 12:37:48;;;;;;;1.70;0.55;;;28.40;62.40;;;;;;5135945;23;20012;-47
2023/03/02 12:40:32;;;;;;;1.25;0.60;;;28.40;62.40;;;;;;5142603;23;20024;-49